Time;durP1;ratioP1;P1;durP2;ratioP2;P2;SDS_P1;SDS_P2;PMS_P1;PMS_P2;Temp;Humidity;BMP_temperature;BMP_pressure;BME280_temperature;BME280_humidity;BME280_pressure;Samples;Min_cycle;Max_cycle;Signal;HPM_P1;HPM_P2
2023/08/24 00:00:20;;;;;;;5.57;4.10;;;;;24.40;100723.00;;;;2107748;28;20233;-71
2023/08/24 00:01:21;;;;;;;4.93;4.03;;;;;24.20;100728.00;;;;2103240;28;20223;-71
2023/08/24 00:02:21;;;;;;;6.90;4.10;;;;;24.10;100736.00;;;;2094671;28;20235;-71
2023/08/24 00:03:22;;;;;;;5.23;3.80;;;;;24.00;100730.00;;;;2092024;28;20575;-71
2023/08/24 00:04:22;;;;;;;6.10;4.13;;;;;24.00;100743.00;;;;2093736;28;20211;-71
2023/08/24 00:05:23;;;;;;;5.00;4.17;;;;;24.00;100727.00;;;;2110563;28;20464;-71
2023/08/24 00:06:23;;;;;;;3.80;3.40;;;;;24.00;100728.00;;;;2108588;28;20223;-71
2023/08/24 00:07:24;;;;;;;6.27;3.80;;;;;23.90;100724.00;;;;2110948;28;20219;-71
2023/08/24 00:08:24;;;;;;;4.20;3.80;;;;;23.80;100727.00;;;;2110288;28;20636;-71
2023/08/24 00:09:24;;;;;;;5.63;4.33;;;;;23.80;100727.00;;;;2106108;28;20219;-71
2023/08/24 00:10:25;;;;;;;6.00;3.83;;;;;23.80;100725.00;;;;2101332;28;20226;-71
2023/08/24 00:11:25;;;;;;;6.33;4.07;;;;;23.80;100730.00;;;;2103691;28;20211;-71
2023/08/24 00:12:26;;;;;;;6.60;3.97;;;;;23.70;100726.00;;;;2109618;28;20469;-71
2023/08/24 00:13:26;;;;;;;7.23;3.90;;;;;23.80;100725.00;;;;2102082;28;20211;-71
2023/08/24 00:14:27;;;;;;;5.17;3.77;;;;;23.80;100723.00;;;;2111533;28;20237;-71
2023/08/24 00:15:28;;;;;;;5.78;3.60;;;;;23.70;100721.00;;;;2111096;28;20263;-71
2023/08/24 00:16:28;;;;;;;3.40;3.10;;;;;23.70;100727.00;;;;2112251;28;20749;-71
2023/08/24 00:17:29;;;;;;;4.67;3.80;;;;;23.70;100729.00;;;;2110582;28;20260;-71
2023/08/24 00:18:29;;;;;;;4.20;3.73;;;;;23.60;100725.00;;;;2097883;28;20216;-71
2023/08/24 00:19:30;;;;;;;5.63;3.80;;;;;23.70;100727.00;;;;2107254;28;20696;-71
2023/08/24 00:20:32;;;;;;;3.70;3.40;;;;;23.70;100721.00;;;;2109545;28;20301;-71
2023/08/24 00:21:32;;;;;;;5.93;3.28;;;;;23.60;100724.00;;;;2108355;28;20214;-71
2023/08/24 00:22:33;;;;;;;5.80;3.90;;;;;23.60;100727.00;;;;2106540;28;20586;-71
2023/08/24 00:23:33;;;;;;;6.50;3.73;;;;;23.60;100721.00;;;;2095863;28;20264;-71
2023/08/24 00:24:33;;;;;;;4.60;3.60;;;;;23.50;100730.00;;;;2112526;28;20259;-71
2023/08/24 00:25:34;;;;;;;3.90;3.50;;;;;23.50;100723.00;;;;2111289;28;20215;-71
2023/08/24 00:26:34;;;;;;;5.30;3.70;;;;;23.60;100722.00;;;;2094033;28;20227;-71
2023/08/24 00:27:35;;;;;;;6.63;3.73;;;;;23.60;100715.00;;;;2093278;28;20247;-72
2023/08/24 00:28:35;;;;;;;5.07;3.67;;;;;23.50;100709.00;;;;2104764;28;20212;-72
2023/08/24 00:29:36;;;;;;;5.83;4.10;;;;;23.50;100724.00;;;;2098220;28;20216;-72
2023/08/24 00:30:36;;;;;;;4.23;3.50;;;;;23.50;100729.00;;;;2098494;28;20212;-71
2023/08/24 00:31:37;;;;;;;6.40;4.33;;;;;23.50;100718.00;;;;2099771;28;20215;-71
2023/08/24 00:32:38;;;;;;;5.80;3.65;;;;;23.50;100717.00;;;;2094913;28;20251;-71
2023/08/24 00:33:39;;;;;;;4.87;3.90;;;;;23.50;100721.00;;;;2089555;28;20727;-71
2023/08/24 00:34:39;;;;;;;4.30;3.90;;;;;23.40;100717.00;;;;2110498;28;20301;-71
2023/08/24 00:35:40;;;;;;;5.37;3.67;;;;;23.40;100716.00;;;;2104028;28;20219;-71
2023/08/24 00:36:40;;;;;;;7.47;3.77;;;;;23.50;100713.00;;;;2111868;28;20203;-71
2023/08/24 00:37:40;;;;;;;4.27;3.87;;;;;23.40;100713.00;;;;2110916;28;20211;-71
2023/08/24 00:38:43;;;;;;;4.93;3.83;;;;;23.40;100709.00;;;;2092803;28;20216;-71
2023/08/24 00:39:43;;;;;;;5.22;3.90;;;;;23.40;100704.00;;;;2103717;28;20207;-71
2023/08/24 00:40:43;;;;;;;6.67;4.00;;;;;23.40;100706.00;;;;2111971;28;20223;-71
2023/08/24 00:41:44;;;;;;;4.53;3.83;;;;;23.40;100708.00;;;;2112540;28;20245;-71
2023/08/24 00:42:48;;;;;;;5.18;3.38;;;;;23.40;100705.00;;;;2110617;28;20230;-71
2023/08/24 00:43:50;;;;;;;4.85;3.47;;;;;23.30;100706.00;;;;2101932;28;20231;-71
2023/08/24 00:44:50;;;;;;;4.88;3.70;;;;;23.30;100709.00;;;;2119480;28;20210;-71
2023/08/24 00:45:51;;;;;;;6.60;3.87;;;;;23.40;100697.00;;;;2112930;28;20225;-71
2023/08/24 00:46:52;;;;;;;4.30;3.83;;;;;23.40;100700.00;;;;2093340;28;20231;-71
2023/08/24 00:47:52;;;;;;;4.20;3.70;;;;;23.40;100699.00;;;;2069752;28;20991;-71
2023/08/24 00:48:56;;;;;;;7.03;4.40;;;;;23.40;100695.00;;;;2075266;28;20255;-71
2023/08/24 00:49:57;;;;;;;6.75;3.95;;;;;23.30;100704.00;;;;2103400;28;20676;-71
2023/08/24 00:50:59;;;;;;;4.07;3.53;;;;;23.30;100698.00;;;;2102779;28;20211;-71
2023/08/24 00:52:00;;;;;;;5.25;3.63;;;;;23.30;100696.00;;;;2095945;28;20220;-71
2023/08/24 00:53:00;;;;;;;4.83;3.57;;;;;23.30;100695.00;;;;2085405;28;20221;-71
2023/08/24 00:54:00;;;;;;;5.00;3.80;;;;;23.30;100700.00;;;;2088699;28;20212;-71
2023/08/24 00:55:01;;;;;;;4.77;3.50;;;;;23.30;100695.00;;;;2094476;28;20246;-71
2023/08/24 00:56:01;;;;;;;4.87;3.80;;;;;23.20;100694.00;;;;2094744;28;20246;-71
2023/08/24 00:57:01;;;;;;;6.33;4.03;;;;;23.20;100651.00;;;;2105660;28;20273;-71
2023/08/24 00:58:02;;;;;;;4.70;4.10;;;;;23.20;100666.00;;;;2095792;28;20261;-71
2023/08/24 00:59:03;;;;;;;6.30;4.07;;;;;23.20;100700.00;;;;2076929;28;20216;-71
2023/08/24 01:00:11;;;;;;;6.57;3.73;;;;;23.20;100690.00;;;;2084532;28;20452;-71
2023/08/24 01:01:11;;;;;;;4.15;3.75;;;;;23.20;100687.00;;;;2089707;28;20250;-71
2023/08/24 01:02:12;;;;;;;4.30;3.50;;;;;23.20;100676.00;;;;2089701;28;21230;-71
2023/08/24 01:03:12;;;;;;;3.67;3.37;;;;;23.20;100688.00;;;;2089541;28;20600;-71
2023/08/24 01:04:13;;;;;;;3.77;3.40;;;;;23.20;100692.00;;;;2079393;28;20224;-71
2023/08/24 01:05:13;;;;;;;5.43;3.73;;;;;23.20;100703.00;;;;2103701;28;20237;-71
2023/08/24 01:06:13;;;;;;;5.60;4.13;;;;;23.30;100700.00;;;;2104547;28;20692;-71
2023/08/24 01:07:15;;;;;;;8.40;4.07;;;;;23.20;100703.00;;;;2102251;28;20216;-71
2023/08/24 01:08:15;;;;;;;6.35;3.78;;;;;23.20;100700.00;;;;2104311;28;20208;-71
2023/08/24 01:09:16;;;;;;;4.90;3.87;;;;;23.10;100696.00;;;;2085347;28;20212;-71
2023/08/24 01:10:16;;;;;;;4.40;3.72;;;;;23.10;100699.00;;;;2104876;28;20200;-71
2023/08/24 01:11:37;;;;;;;3.73;3.37;;;;;23.10;100655.00;;;;2111541;28;20203;-71
2023/08/24 01:12:43;;;;;;;5.70;3.50;;;;;23.10;100697.00;;;;2105688;28;20227;-71
2023/08/24 01:14:03;;;;;;;3.78;3.33;;;;;23.10;100694.00;;;;2101618;27;20210;-71
2023/08/24 01:15:11;;;;;;;5.03;3.75;;;;;23.10;100688.00;;;;2109337;28;20214;-71
2023/08/24 01:16:15;;;;;;;4.72;3.53;;;;;23.10;100702.00;;;;2095299;28;20220;-71
2023/08/24 01:17:16;;;;;;;5.15;3.80;;;;;23.10;100691.00;;;;2088576;28;20640;-71
2023/08/24 01:18:16;;;;;;;3.80;3.50;;;;;23.20;100684.00;;;;2100940;28;20797;-71
2023/08/24 01:19:33;;;;;;;5.73;3.20;;;;;23.10;100671.00;;;;2083739;28;20236;-71
2023/08/24 01:20:34;;;;;;;5.10;3.55;;;;;23.00;100683.00;;;;2089020;28;20223;-71
2023/08/24 01:21:34;;;;;;;5.63;3.57;;;;;23.00;100677.00;;;;2092072;28;20221;-71
2023/08/24 01:22:41;;;;;;;5.43;4.20;;;;;23.00;100673.00;;;;2100632;28;20313;-71
2023/08/24 01:23:46;;;;;;;4.03;3.70;;;;;23.00;100682.00;;;;2091290;28;21011;-71
2023/08/24 01:24:53;;;;;;;4.90;3.80;;;;;23.00;100685.00;;;;2101587;28;20222;-71
2023/08/24 01:26:18;;;;;;;5.43;4.00;;;;;23.00;100691.00;;;;2102787;28;20219;-71
2023/08/24 01:27:19;;;;;;;4.10;3.70;;;;;23.00;100681.00;;;;2105129;28;20211;-71
2023/08/24 01:28:21;;;;;;;3.87;3.50;;;;;23.00;100685.00;;;;2086377;28;20303;-71
2023/08/24 01:29:21;;;;;;;4.18;3.78;;;;;23.00;100683.00;;;;2077623;28;20530;-71
2023/08/24 01:30:22;;;;;;;5.13;3.90;;;;;23.00;100685.00;;;;2096296;28;20631;-71
2023/08/24 01:31:22;;;;;;;4.30;3.37;;;;;22.90;100680.00;;;;2104657;28;20569;-71
2023/08/24 01:32:22;;;;;;;4.23;3.80;;;;;23.00;100670.00;;;;2096173;28;20215;-71
2023/08/24 01:33:23;;;;;;;5.43;3.83;;;;;22.90;100632.00;;;;2085630;28;20216;-71
2023/08/24 01:34:23;;;;;;;4.37;3.90;;;;;22.90;100678.00;;;;2085023;28;20223;-71
2023/08/24 01:35:23;;;;;;;6.20;3.70;;;;;22.90;100678.00;;;;2089702;28;20204;-71
2023/08/24 01:36:25;;;;;;;3.53;3.07;;;;;22.90;100673.00;;;;2096066;28;20200;-71
2023/08/24 01:37:26;;;;;;;6.28;3.45;;;;;23.00;100683.00;;;;2086649;28;20275;-71
2023/08/24 01:38:26;;;;;;;6.43;3.50;;;;;22.90;100641.00;;;;2069463;28;20686;-71
2023/08/24 01:39:35;;;;;;;5.40;3.53;;;;;22.90;100678.00;;;;2086223;28;20278;-71
2023/08/24 01:41:16;;;;;;;4.32;3.63;;;;;22.90;100672.00;;;;2088544;28;20247;-71
2023/08/24 01:42:18;;;;;;;5.57;3.60;;;;;22.80;100589.00;;;;2057521;28;20226;-71
2023/08/24 01:43:20;;;;;;;4.57;3.80;;;;;22.80;100676.00;;;;2085004;28;20559;-71
2023/08/24 01:44:21;;;;;;;5.28;3.70;;;;;22.90;100677.00;;;;2076029;28;20215;-71
2023/08/24 01:45:22;;;;;;;5.00;4.00;;;;;22.90;100683.00;;;;2075820;28;20220;-71
2023/08/24 01:46:22;;;;;;;3.95;3.50;;;;;22.90;100677.00;;;;2088058;28;20209;-71
2023/08/24 01:47:23;;;;;;;4.03;3.00;;;;;22.90;100681.00;;;;2094171;28;20242;-71
2023/08/24 01:48:23;;;;;;;5.97;3.70;;;;;22.90;100691.00;;;;2081721;28;20213;-71
2023/08/24 01:49:25;;;;;;;3.73;3.40;;;;;22.90;100646.00;;;;2076270;28;20219;-70
2023/08/24 01:50:25;;;;;;;5.15;3.67;;;;;22.90;100698.00;;;;2100405;28;20204;-70
2023/08/24 01:51:26;;;;;;;6.70;3.73;;;;;22.80;100679.00;;;;2096194;28;20247;-70
2023/08/24 01:52:26;;;;;;;4.53;3.80;;;;;22.80;100683.00;;;;2078873;28;20214;-70
2023/08/24 01:53:27;;;;;;;4.40;4.00;;;;;22.80;100668.00;;;;2077943;28;20209;-70
2023/08/24 01:54:28;;;;;;;5.45;3.47;;;;;22.80;100662.00;;;;2092304;28;20220;-70
2023/08/24 01:55:28;;;;;;;5.83;3.33;;;;;22.80;100678.00;;;;2091319;28;20227;-70
2023/08/24 01:56:28;;;;;;;3.80;3.50;;;;;22.80;100675.00;;;;2096052;28;20208;-70
2023/08/24 01:57:29;;;;;;;5.57;3.70;;;;;22.80;100675.00;;;;2095236;28;20239;-70
2023/08/24 01:58:29;;;;;;;5.00;3.30;;;;;22.80;100670.00;;;;2084332;28;20200;-70
2023/08/24 01:59:30;;;;;;;3.97;3.63;;;;;22.80;100667.00;;;;2095422;28;20287;-70
2023/08/24 02:00:30;;;;;;;3.53;3.10;;;;;22.70;100664.00;;;;2102845;28;20204;-71
2023/08/24 02:01:30;;;;;;;5.13;3.13;;;;;22.70;100668.00;;;;2113031;28;20230;-71
2023/08/24 02:02:31;;;;;;;4.07;3.43;;;;;22.70;100661.00;;;;2110057;28;20309;-71
2023/08/24 02:03:31;;;;;;;3.70;3.40;;;;;22.70;100672.00;;;;2098135;28;20280;-71
2023/08/24 02:04:31;;;;;;;4.60;3.73;;;;;22.70;100659.00;;;;2113455;28;20223;-71
2023/08/24 02:05:32;;;;;;;5.03;3.37;;;;;22.70;100659.00;;;;2111088;28;20222;-71
2023/08/24 02:06:32;;;;;;;5.53;3.70;;;;;22.70;100662.00;;;;2113317;28;20239;-71
2023/08/24 02:07:32;;;;;;;4.20;3.20;;;;;22.70;100655.00;;;;2103229;28;20216;-71
2023/08/24 02:08:33;;;;;;;5.13;3.87;;;;;22.70;100653.00;;;;2089830;28;20219;-71
2023/08/24 02:09:33;;;;;;;5.60;3.30;;;;;22.70;100656.00;;;;2112683;28;20225;-71
2023/08/24 02:10:33;;;;;;;4.43;3.77;;;;;22.80;100659.00;;;;2112872;28;20223;-71
2023/08/24 02:11:34;;;;;;;4.40;3.00;;;;;22.70;100656.00;;;;2112091;28;20230;-71
2023/08/24 02:12:34;;;;;;;4.40;3.37;;;;;22.70;100653.00;;;;2112635;28;20276;-71
2023/08/24 02:13:34;;;;;;;4.27;3.87;;;;;22.70;100662.00;;;;2099629;28;20302;-71
2023/08/24 02:14:35;;;;;;;3.93;3.53;;;;;22.60;100653.00;;;;2106538;28;20230;-71
2023/08/24 02:15:37;;;;;;;4.07;3.40;;;;;22.70;100655.00;;;;2112670;28;20222;-71
2023/08/24 02:16:37;;;;;;;4.53;3.67;;;;;22.70;100661.00;;;;2108682;28;20282;-71
2023/08/24 02:17:38;;;;;;;8.47;3.30;;;;;22.70;100655.00;;;;2113182;28;20352;-71
2023/08/24 02:18:38;;;;;;;4.17;3.77;;;;;22.60;100642.00;;;;2098849;28;20612;-71
2023/08/24 02:19:38;;;;;;;4.80;3.30;;;;;22.60;100643.00;;;;2112069;28;20599;-71
2023/08/24 02:20:39;;;;;;;5.47;3.47;;;;;22.70;100648.00;;;;2113167;28;20646;-71
2023/08/24 02:21:39;;;;;;;4.17;3.50;;;;;22.60;100663.00;;;;2111530;28;20211;-71
2023/08/24 02:22:39;;;;;;;5.07;3.70;;;;;22.60;100661.00;;;;2113306;28;20320;-71
2023/08/24 02:23:40;;;;;;;4.40;3.23;;;;;22.60;100654.00;;;;2106894;27;20233;-71
2023/08/24 02:24:40;;;;;;;6.57;3.87;;;;;22.60;100656.00;;;;2109674;27;20264;-70
2023/08/24 02:25:44;;;;;;;6.00;3.90;;;;;22.60;100652.00;;;;2115691;27;20214;-70
2023/08/24 02:26:44;;;;;;;4.85;3.08;;;;;22.60;100659.00;;;;2104305;28;20222;-70
2023/08/24 02:27:44;;;;;;;6.00;3.60;;;;;22.60;100656.00;;;;2104279;28;20648;-70
2023/08/24 02:28:45;;;;;;;4.23;3.83;;;;;22.60;100665.00;;;;2097743;28;20590;-70
2023/08/24 02:29:45;;;;;;;7.43;3.87;;;;;22.60;100654.00;;;;2108143;28;20599;-71
2023/08/24 02:30:45;;;;;;;4.47;4.00;;;;;22.60;100662.00;;;;2109622;28;20264;-71
2023/08/24 02:31:46;;;;;;;8.37;3.63;;;;;22.60;100660.00;;;;2103291;28;20249;-71
2023/08/24 02:32:46;;;;;;;4.37;3.50;;;;;22.60;100659.00;;;;2106986;28;20262;-71
2023/08/24 02:33:48;;;;;;;6.33;3.83;;;;;22.50;100656.00;;;;2102385;28;20237;-71
2023/08/24 02:34:49;;;;;;;4.43;3.90;;;;;22.50;100643.00;;;;2120041;27;20210;-71
2023/08/24 02:35:49;;;;;;;6.90;3.30;;;;;22.40;100645.00;;;;2105939;27;20219;-71
2023/08/24 02:36:49;;;;;;;5.70;4.10;;;;;22.40;100640.00;;;;2115122;27;20218;-71
2023/08/24 02:37:50;;;;;;;4.80;3.70;;;;;22.40;100640.00;;;;2116254;27;20245;-71
2023/08/24 02:38:50;;;;;;;3.50;3.20;;;;;22.40;100634.00;;;;2102245;28;20227;-71
2023/08/24 02:39:50;;;;;;;4.20;3.30;;;;;22.40;100639.00;;;;2105638;28;20242;-71
2023/08/24 02:41:04;;;;;;;5.10;3.77;;;;;22.40;100640.00;;;;2107332;28;20218;-71
2023/08/24 02:42:04;;;;;;;4.63;3.90;;;;;22.40;100644.00;;;;2109100;28;20223;-71
2023/08/24 02:43:04;;;;;;;5.17;4.10;;;;;22.40;100645.00;;;;2099699;28;20216;-71
2023/08/24 02:44:05;;;;;;;7.30;3.50;;;;;22.40;100652.00;;;;2093939;28;20680;-71
2023/08/24 02:45:06;;;;;;;6.87;3.47;;;;;22.40;100643.00;;;;2112781;28;20774;-71
2023/08/24 02:46:07;;;;;;;6.30;3.70;;;;;22.40;100651.00;;;;2109667;28;20275;-71
2023/08/24 02:47:08;;;;;;;4.35;3.15;;;;;22.40;100653.00;;;;2113295;28;20961;-71
2023/08/24 02:48:09;;;;;;;3.53;3.23;;;;;22.40;100657.00;;;;2112148;28;20198;-71
2023/08/24 02:49:09;;;;;;;5.50;3.40;;;;;22.30;100650.00;;;;2101967;28;20210;-72
2023/08/24 02:50:10;;;;;;;3.83;3.27;;;;;22.30;100652.00;;;;2110801;28;20948;-71
2023/08/24 02:51:10;;;;;;;4.93;3.80;;;;;22.30;100643.00;;;;2113158;28;20698;-71
2023/08/24 02:52:10;;;;;;;3.60;3.10;;;;;22.30;100651.00;;;;2111748;28;20221;-71
2023/08/24 02:53:11;;;;;;;5.43;3.67;;;;;22.30;100642.00;;;;2112615;28;20760;-71
2023/08/24 02:54:11;;;;;;;5.20;3.27;;;;;22.30;100643.00;;;;2102886;28;20675;-71
2023/08/24 02:55:11;;;;;;;4.53;3.60;;;;;22.30;100641.00;;;;2112053;28;20267;-71
2023/08/24 02:56:12;;;;;;;4.20;3.43;;;;;22.30;100645.00;;;;2112912;28;20223;-71
2023/08/24 02:57:12;;;;;;;5.73;4.07;;;;;22.30;100644.00;;;;2114789;27;20302;-71
2023/08/24 02:58:12;;;;;;;4.80;3.70;;;;;22.30;100646.00;;;;2104809;28;20224;-71
2023/08/24 02:59:13;;;;;;;3.93;3.53;;;;;22.30;100644.00;;;;2106216;27;20233;-71
2023/08/24 03:00:13;;;;;;;3.80;3.50;;;;;22.30;100645.00;;;;2111909;28;20214;-71
2023/08/24 03:01:14;;;;;;;4.80;3.40;;;;;22.30;100639.00;;;;2112143;28;20219;-71
2023/08/24 03:02:14;;;;;;;4.30;3.37;;;;;22.30;100651.00;;;;2099958;28;20445;-71
2023/08/24 03:03:15;;;;;;;5.13;4.07;;;;;22.30;100639.00;;;;2095847;28;20215;-71
2023/08/24 03:04:15;;;;;;;4.60;4.20;;;;;22.30;100640.00;;;;2102179;28;20218;-71
2023/08/24 03:05:15;;;;;;;4.20;3.80;;;;;22.30;100646.00;;;;2113957;27;20202;-71
2023/08/24 03:06:16;;;;;;;4.50;3.10;;;;;22.30;100651.00;;;;2100881;28;20219;-71
2023/08/24 03:07:16;;;;;;;4.37;3.97;;;;;22.30;100656.00;;;;2102922;28;20211;-71
2023/08/24 03:08:16;;;;;;;3.93;3.53;;;;;22.30;100655.00;;;;2109663;28;20211;-71
2023/08/24 03:09:17;;;;;;;7.40;3.87;;;;;22.30;100660.00;;;;2098418;28;20340;-71
2023/08/24 03:10:17;;;;;;;3.70;3.40;;;;;22.30;100662.00;;;;2111462;28;20215;-71
2023/08/24 03:11:17;;;;;;;4.70;3.93;;;;;22.30;100664.00;;;;2112505;28;20554;-71
2023/08/24 03:12:18;;;;;;;4.20;3.80;;;;;22.30;100656.00;;;;2113473;28;20702;-71
2023/08/24 03:13:18;;;;;;;4.40;3.20;;;;;22.30;100615.00;;;;2094161;28;21002;-71
2023/08/24 03:14:19;;;;;;;4.77;3.27;;;;;22.30;100658.00;;;;2083751;28;20684;-71
2023/08/24 03:15:21;;;;;;;4.80;3.73;;;;;22.30;100657.00;;;;2094884;28;20291;-71
2023/08/24 03:16:21;;;;;;;5.25;3.67;;;;;22.30;100652.00;;;;2088724;28;20643;-71
2023/08/24 03:17:22;;;;;;;4.20;3.63;;;;;22.30;100643.00;;;;2104239;28;20207;-71
2023/08/24 03:18:22;;;;;;;3.67;3.37;;;;;22.20;100634.00;;;;2110210;28;20279;-71
2023/08/24 03:19:22;;;;;;;7.07;3.90;;;;;22.20;100637.00;;;;2091745;28;20219;-71
2023/08/24 03:20:23;;;;;;;5.73;3.87;;;;;22.20;100608.00;;;;2103628;28;20219;-71
2023/08/24 03:21:23;;;;;;;5.13;3.70;;;;;22.20;100629.00;;;;2102734;28;20573;-71
2023/08/24 03:22:23;;;;;;;4.40;3.47;;;;;22.20;100640.00;;;;2103763;28;20301;-71
2023/08/24 03:23:24;;;;;;;4.40;3.30;;;;;22.20;100637.00;;;;2112161;28;20225;-71
2023/08/24 03:24:24;;;;;;;5.57;3.77;;;;;22.20;100634.00;;;;2112130;27;20210;-71
2023/08/24 03:25:25;;;;;;;4.33;3.50;;;;;22.20;100628.00;;;;2109856;28;20812;-71
2023/08/24 03:26:25;;;;;;;5.10;3.20;;;;;22.20;100647.00;;;;2112286;28;20234;-71
2023/08/24 03:27:26;;;;;;;6.37;4.00;;;;;22.20;100652.00;;;;2111699;28;20229;-71
2023/08/24 03:28:26;;;;;;;5.23;3.87;;;;;22.20;100651.00;;;;2102337;28;20576;-71
2023/08/24 03:29:26;;;;;;;6.17;3.90;;;;;22.20;100652.00;;;;2112890;28;20584;-71
2023/08/24 03:30:27;;;;;;;4.00;3.60;;;;;22.20;100642.00;;;;2110592;28;20206;-71
2023/08/24 03:31:27;;;;;;;5.10;3.43;;;;;22.20;100621.00;;;;2111384;28;20210;-71
2023/08/24 03:32:27;;;;;;;4.80;3.77;;;;;22.20;100641.00;;;;2109264;28;20198;-71
2023/08/24 03:33:28;;;;;;;4.80;3.60;;;;;22.20;100641.00;;;;2103512;27;20234;-71
2023/08/24 03:34:29;;;;;;;5.23;4.10;;;;;22.20;100633.00;;;;2117029;27;20657;-71
2023/08/24 03:35:33;;;;;;;4.28;3.88;;;;;22.20;100642.00;;;;2109666;28;20198;-71
2023/08/24 03:36:33;;;;;;;5.93;3.55;;;;;22.20;100638.00;;;;2095418;28;20249;-71
2023/08/24 03:37:34;;;;;;;4.67;3.10;;;;;22.20;100587.00;;;;2093018;28;20207;-71
2023/08/24 03:38:34;;;;;;;4.70;3.60;;;;;22.20;100647.00;;;;2093392;28;20262;-71
2023/08/24 03:39:36;;;;;;;6.50;3.90;;;;;22.20;100643.00;;;;2095179;28;20214;-71
2023/08/24 03:40:37;;;;;;;5.57;4.10;;;;;22.20;100645.00;;;;2103791;28;20294;-71
2023/08/24 03:41:37;;;;;;;4.40;3.67;;;;;22.20;100640.00;;;;2115653;28;20203;-71
2023/08/24 03:42:37;;;;;;;5.23;4.10;;;;;22.20;100652.00;;;;2114020;28;20606;-71
2023/08/24 03:43:38;;;;;;;5.10;4.50;;;;;22.20;100656.00;;;;2099800;28;20235;-71
2023/08/24 03:44:38;;;;;;;3.60;3.30;;;;;22.20;100656.00;;;;2101790;28;20292;-71
2023/08/24 03:45:38;;;;;;;5.20;4.00;;;;;22.20;100648.00;;;;2101594;28;20294;-71
2023/08/24 03:46:39;;;;;;;4.20;3.53;;;;;22.20;100599.00;;;;2107063;28;20207;-71
2023/08/24 03:47:39;;;;;;;5.80;4.20;;;;;22.20;100646.00;;;;2110091;28;20203;-71
2023/08/24 03:48:39;;;;;;;7.30;3.80;;;;;22.10;100638.00;;;;2097054;28;20255;-71
2023/08/24 03:49:43;;;;;;;5.47;4.10;;;;;22.10;100651.00;;;;2110894;28;20226;-71
2023/08/24 03:50:43;;;;;;;5.40;4.13;;;;;22.10;100650.00;;;;2112869;28;20229;-71
2023/08/24 03:51:43;;;;;;;4.83;3.97;;;;;22.20;100658.00;;;;2110199;28;20218;-71
2023/08/24 03:52:43;;;;;;;4.23;3.47;;;;;22.20;100658.00;;;;2110581;28;20217;-71
2023/08/24 03:53:44;;;;;;;4.20;3.37;;;;;22.20;100664.00;;;;2101624;28;20224;-71
2023/08/24 03:54:45;;;;;;;4.30;3.63;;;;;22.20;100669.00;;;;2112153;28;20291;-71
2023/08/24 03:55:50;;;;;;;5.50;3.77;;;;;22.10;100667.00;;;;2107440;28;20216;-71
2023/08/24 03:56:50;;;;;;;5.47;3.67;;;;;22.10;100667.00;;;;2114702;28;20221;-71
2023/08/24 03:57:51;;;;;;;4.60;3.73;;;;;22.20;100673.00;;;;2107650;28;20246;-71
2023/08/24 03:58:52;;;;;;;6.40;3.93;;;;;22.20;100665.00;;;;2102332;28;20284;-71
2023/08/24 03:59:52;;;;;;;4.10;3.70;;;;;22.00;100673.00;;;;2115006;28;20258;-71
2023/08/24 04:00:53;;;;;;;6.13;3.60;;;;;22.20;100668.00;;;;2110660;28;20233;-71
2023/08/24 04:01:54;;;;;;;4.38;3.97;;;;;22.20;100668.00;;;;2112134;28;20293;-71
2023/08/24 04:02:54;;;;;;;5.37;3.60;;;;;22.20;100663.00;;;;2112846;28;20263;-71
2023/08/24 04:03:55;;;;;;;5.87;4.70;;;;;22.20;100669.00;;;;2092653;28;20250;-71
2023/08/24 04:04:55;;;;;;;3.80;3.50;;;;;22.20;100663.00;;;;2104818;28;20230;-71
2023/08/24 04:05:55;;;;;;;9.73;4.13;;;;;22.20;100654.00;;;;2115710;28;20249;-71
2023/08/24 04:06:56;;;;;;;6.40;3.90;;;;;22.10;100659.00;;;;2114632;28;20215;-71
2023/08/24 04:07:56;;;;;;;6.67;4.07;;;;;22.20;100657.00;;;;2103884;28;20219;-71
2023/08/24 04:08:56;;;;;;;4.40;4.00;;;;;22.20;100655.00;;;;2090946;28;20309;-71
2023/08/24 04:09:57;;;;;;;4.40;4.00;;;;;22.20;100644.00;;;;2108408;28;20219;-71
2023/08/24 04:10:57;;;;;;;7.03;3.87;;;;;22.20;100640.00;;;;2112931;28;20225;-71
2023/08/24 04:11:57;;;;;;;4.60;3.73;;;;;22.20;100627.00;;;;2112433;28;20218;-71
2023/08/24 04:12:58;;;;;;;4.90;4.00;;;;;22.20;100578.00;;;;2112743;28;20245;-71
2023/08/24 04:13:58;;;;;;;6.40;4.17;;;;;22.10;100625.00;;;;2096711;28;20226;-71
2023/08/24 04:14:58;;;;;;;4.20;3.80;;;;;22.10;100612.00;;;;2111230;28;20573;-71
2023/08/24 04:15:59;;;;;;;3.90;3.40;;;;;22.20;100621.00;;;;2112125;28;20600;-71
2023/08/24 04:16:59;;;;;;;3.80;3.50;;;;;22.10;100540.00;;;;2111826;28;20223;-71
2023/08/24 04:17:59;;;;;;;3.60;3.00;;;;;22.10;100625.00;;;;2102699;28;20223;-71
2023/08/24 04:19:00;;;;;;;5.17;3.97;;;;;22.10;100619.00;;;;2092602;28;20223;-71
2023/08/24 04:20:00;;;;;;;4.00;3.13;;;;;22.10;100616.00;;;;2112063;28;20230;-71
2023/08/24 04:21:00;;;;;;;4.57;3.67;;;;;22.10;100617.00;;;;2106361;28;20711;-71
2023/08/24 04:22:01;;;;;;;4.43;3.67;;;;;22.10;100613.00;;;;2112755;28;20704;-71
2023/08/24 04:23:01;;;;;;;5.40;3.70;;;;;22.10;100596.00;;;;2111423;28;20703;-71
2023/08/24 04:24:02;;;;;;;5.30;4.03;;;;;22.10;100609.00;;;;2101217;28;21059;-71
2023/08/24 04:25:03;;;;;;;4.00;3.60;;;;;22.20;100614.00;;;;2112621;28;20238;-71
2023/08/24 04:26:05;;;;;;;4.85;4.00;;;;;22.20;100616.00;;;;2112865;28;20215;-71
2023/08/24 04:27:05;;;;;;;6.35;4.00;;;;;22.20;100610.00;;;;2103530;28;20216;-71
2023/08/24 04:28:05;;;;;;;4.43;3.87;;;;;22.20;100612.00;;;;2103387;28;20230;-71
2023/08/24 04:29:05;;;;;;;5.57;3.80;;;;;22.10;100612.00;;;;2098131;28;20301;-71
2023/08/24 04:30:11;;;;;;;4.17;3.80;;;;;22.20;100604.00;;;;2106074;28;20273;-71
2023/08/24 04:31:11;;;;;;;5.22;3.78;;;;;22.10;100619.00;;;;2108912;28;20203;-71
2023/08/24 04:32:12;;;;;;;6.13;3.50;;;;;22.10;100602.00;;;;2113248;28;20210;-71
2023/08/24 04:33:12;;;;;;;5.17;4.00;;;;;22.10;100613.00;;;;2102189;28;20235;-71
2023/08/24 04:34:12;;;;;;;4.20;3.60;;;;;22.10;100611.00;;;;2091120;28;20259;-71
2023/08/24 04:35:12;;;;;;;5.80;3.77;;;;;22.10;100612.00;;;;2106223;28;20216;-71
2023/08/24 04:36:13;;;;;;;6.20;4.07;;;;;22.10;100604.00;;;;2110271;28;20219;-71
2023/08/24 04:37:13;;;;;;;4.70;3.93;;;;;22.10;100601.00;;;;2114331;28;20348;-71
2023/08/24 04:38:14;;;;;;;3.90;3.33;;;;;22.10;100603.00;;;;2113465;27;20215;-71
2023/08/24 04:39:14;;;;;;;4.30;3.60;;;;;22.00;100598.00;;;;2093601;28;20227;-71
2023/08/24 04:40:14;;;;;;;5.57;3.50;;;;;22.10;100605.00;;;;2102314;28;20211;-71
2023/08/24 04:41:15;;;;;;;6.70;3.83;;;;;22.10;100598.00;;;;2107230;28;20218;-71
2023/08/24 04:42:15;;;;;;;4.13;3.47;;;;;22.10;100602.00;;;;2106358;28;20245;-71
2023/08/24 04:43:16;;;;;;;5.30;3.73;;;;;22.00;100607.00;;;;2102997;28;20238;-71
2023/08/24 04:44:16;;;;;;;5.13;3.47;;;;;22.00;100604.00;;;;2096637;28;20226;-71
2023/08/24 04:45:16;;;;;;;4.70;3.50;;;;;22.10;100609.00;;;;2109361;28;20609;-71
2023/08/24 04:46:17;;;;;;;7.30;4.13;;;;;22.10;100610.00;;;;2110394;28;20569;-71
2023/08/24 04:47:17;;;;;;;4.27;3.43;;;;;22.10;100597.00;;;;2113595;28;20206;-71
2023/08/24 04:48:18;;;;;;;3.97;3.67;;;;;22.10;100608.00;;;;2112367;28;20203;-71
2023/08/24 04:49:18;;;;;;;4.33;3.93;;;;;22.00;100604.00;;;;2101236;28;20264;-71
2023/08/24 04:50:18;;;;;;;9.67;4.00;;;;;22.00;100598.00;;;;2112584;28;20600;-71
2023/08/24 04:51:19;;;;;;;5.10;3.67;;;;;22.00;100591.00;;;;2106806;28;20211;-72
2023/08/24 04:52:19;;;;;;;6.80;3.97;;;;;22.00;100575.00;;;;2112288;28;20609;-71
2023/08/24 04:53:19;;;;;;;4.13;3.73;;;;;22.00;100547.00;;;;2113022;28;20591;-71
2023/08/24 04:54:21;;;;;;;5.13;3.30;;;;;22.00;100557.00;;;;2093248;28;20675;-71
2023/08/24 04:55:22;;;;;;;4.50;3.10;;;;;22.00;100553.00;;;;2104830;28;20246;-71
2023/08/24 04:56:22;;;;;;;5.30;3.20;;;;;22.10;100551.00;;;;2109108;28;20222;-71
2023/08/24 04:57:23;;;;;;;4.30;3.90;;;;;22.10;100553.00;;;;2113512;28;20233;-71
2023/08/24 04:58:24;;;;;;;4.57;4.10;;;;;22.10;100553.00;;;;2114019;28;20219;-71
2023/08/24 04:59:24;;;;;;;3.72;3.30;;;;;22.10;100546.00;;;;2094899;28;20214;-71
2023/08/24 05:00:25;;;;;;;8.17;3.67;;;;;22.00;100559.00;;;;2088208;28;20588;-71
2023/08/24 05:01:26;;;;;;;3.70;3.40;;;;;22.10;100564.00;;;;2088345;28;20587;-71
2023/08/24 05:02:26;;;;;;;6.83;3.50;;;;;22.10;100558.00;;;;2088106;28;20450;-71